Time;durP1;ratioP1;P1;durP2;ratioP2;P2;SDS_P1;SDS_P2;PMS_P1;PMS_P2;Temp;Humidity;BMP_temperature;BMP_pressure;BME280_temperature;BME280_humidity;BME280_pressure;Samples;Min_cycle;Max_cycle;Signal;HPM_P1;HPM_P2
2023/06/08 00:00:33;;;;;;;;;;;25.70;29.90;;;25.11;28.01;101369.84;12246605;19;19947;-83
2023/06/08 00:04:34;;;;;;;;;;;25.60;29.90;;;25.02;27.75;101365.50;12246508;19;19919;-83
2023/06/08 00:08:35;;;;;;;;;;;25.50;29.90;;;24.94;27.61;101363.63;12246774;19;19919;-84
2023/06/08 00:12:37;;;;;;;;;;;25.40;30.00;;;24.84;28.07;101358.41;12243985;19;19975;-83
2023/06/08 00:16:39;;;;;;;;;;;25.30;30.00;;;24.77;28.11;101357.41;12245696;19;20001;-83
2023/06/08 00:20:41;;;;;;;;;;;25.20;29.90;;;24.72;28.07;101367.75;12243670;19;19926;-84
2023/06/08 00:24:43;;;;;;;;;;;25.10;30.00;;;24.52;27.83;101345.81;12242750;19;20359;-84
2023/06/08 00:28:48;;;;;;;;;;;25.10;30.00;;;24.58;28.14;101363.84;12246079;19;19907;-84
2023/06/08 00:32:50;;;;;;;;;;;25.00;30.00;;;24.31;28.12;101329.34;12240547;19;19953;-83
2023/06/08 00:36:52;;;;;;;;;;;24.90;30.00;;;24.41;27.78;101351.38;12245946;19;19930;-84
2023/06/08 00:40:53;;;;;;;;;;;24.90;30.00;;;24.27;28.22;101342.97;12244340;19;19931;-83
2023/06/08 00:44:55;;;;;;;;;;;24.80;30.40;;;24.24;27.90;101353.97;12242895;19;19926;-84
2023/06/08 00:48:57;;;;;;;;;;;24.70;30.00;;;24.16;28.32;101348.59;12243452;19;19918;-83
2023/06/08 00:53:00;;;;;;;;;;;24.60;30.00;;;24.10;28.02;101343.91;12238463;19;20477;-84
2023/06/08 00:57:03;;;;;;;;;;;24.60;30.10;;;23.98;28.21;101343.34;12239976;19;19954;-83
2023/06/08 01:01:04;;;;;;;;;;;24.50;30.10;;;23.87;28.28;101332.91;12240670;19;19930;-83
2023/06/08 01:05:07;;;;;;;;;;;24.40;30.20;;;23.90;28.32;101347.75;12242536;19;19911;-83
2023/06/08 01:09:33;;;;;;;;;;;24.30;30.10;;;23.82;28.38;101345.91;12241922;19;19930;-83
2023/06/08 01:14:00;;;;;;;;;;;24.30;30.20;;;23.73;28.50;101344.97;12240479;19;20008;-83
2023/06/08 01:18:07;;;;;;;;;;;24.30;30.30;;;23.64;28.13;101338.72;12244044;19;19929;-84
2023/06/08 01:22:23;;;;;;;;;;;24.10;30.20;;;23.54;28.23;101329.97;12239627;19;19926;-83
2023/06/08 01:26:28;;;;;;;;;;;24.00;30.30;;;23.45;28.55;101328.25;12241697;19;19947;-83
2023/06/08 01:30:30;;;;;;;;;;;24.00;30.40;;;23.41;28.58;101329.53;12236642;19;19919;-83
2023/06/08 01:34:32;;;;;;;;;;;23.90;30.40;;;23.30;28.69;101319.94;12246066;19;19911;-83
2023/06/08 01:38:55;;;;;;;;;;;23.80;30.40;;;23.17;28.75;101308.84;12252955;19;19911;-83
2023/06/08 01:42:57;;;;;;;;;;;23.80;30.40;;;23.10;28.63;101305.94;12254977;19;19923;-83
2023/06/08 01:47:01;;;;;;;;;;;23.70;30.50;;;23.07;28.42;101308.91;12256332;19;19922;-83
2023/06/08 01:51:04;;;;;;;;;;;23.60;30.50;;;23.01;28.58;101314.84;12252750;19;19922;-83
2023/06/08 01:55:14;;;;;;;;;;;23.50;30.40;;;22.89;28.62;101300.03;12255272;19;20252;-83
2023/06/08 01:59:16;;;;;;;;;;;23.50;30.50;;;22.93;28.87;101318.25;12256691;19;19947;-83
2023/06/08 02:03:17;;;;;;;;;;;23.50;30.60;;;22.87;28.53;101315.31;12252386;19;19991;-83
2023/06/08 02:07:21;;;;;;;;;;;23.30;30.60;;;22.69;28.62;101304.66;12256191;19;19915;-83
2023/06/08 02:11:22;;;;;;;;;;;23.30;30.60;;;22.71;28.66;101313.31;12253098;19;19939;-83
2023/06/08 02:15:25;;;;;;;;;;;23.20;30.70;;;22.61;28.93;101307.25;12257045;19;19910;-82
2023/06/08 02:19:27;;;;;;;;;;;23.20;30.70;;;22.50;28.76;101301.13;12254734;19;19917;-84
2023/06/08 02:23:28;;;;;;;;;;;23.10;30.70;;;22.40;29.02;101289.69;12252108;19;20392;-82
2023/06/08 02:27:30;;;;;;;;;;;23.00;30.70;;;22.41;28.75;101306.47;12257747;19;19926;-83
2023/06/08 02:31:33;;;;;;;;;;;23.00;30.70;;;22.23;28.81;101293.16;12254282;19;19915;-84
2023/06/08 02:35:36;;;;;;;;;;;22.90;30.70;;;22.21;29.05;101305.75;12257312;19;19923;-83
2023/06/08 02:39:37;;;;;;;;;;;22.90;30.80;;;22.25;29.21;101310.63;12251639;19;19926;-83
2023/06/08 02:43:38;;;;;;;;;;;22.80;30.90;;;22.04;29.13;101292.19;12247022;19;19926;-82
2023/06/08 02:47:40;;;;;;;;;;;22.70;30.90;;;22.08;28.89;101306.03;12249985;19;19915;-83
2023/06/08 02:51:42;;;;;;;;;;;22.70;30.90;;;22.02;29.25;101307.47;12249776;19;19907;-83
2023/06/08 02:55:44;;;;;;;;;;;22.60;30.90;;;21.61;29.18;101256.34;12254578;19;19926;-82
2023/06/08 02:59:54;;;;;;;;;;;22.50;30.90;;;21.70;29.58;101275.09;12254751;19;19925;-83
2023/06/08 03:03:56;;;;;;;;;;;22.40;30.90;;;21.65;29.34;101286.13;12249413;19;19923;-83
2023/06/08 03:08:07;;;;;;;;;;;22.30;31.00;;;21.72;29.21;101305.03;12249348;19;19930;-83
2023/06/08 03:12:12;;;;;;;;;;;22.30;31.30;;;21.61;29.10;101304.19;12247922;19;19918;-84
2023/06/08 03:16:14;;;;;;;;;;;22.30;31.00;;;21.62;29.57;101305.88;12251750;19;20479;-83
2023/06/08 03:20:17;;;;;;;;;;;22.20;31.00;;;21.55;29.45;101306.56;12251844;19;19914;-83
2023/06/08 03:24:31;;;;;;;;;;;22.10;31.10;;;21.51;29.20;101308.69;12252623;19;19914;-84
2023/06/08 03:28:33;;;;;;;;;;;22.10;31.50;;;21.37;29.46;101299.34;12251090;19;19915;-83
2023/06/08 03:32:36;;;;;;;;;;;22.10;31.10;;;21.28;29.13;101286.88;12246962;19;19930;-83
2023/06/08 03:36:38;;;;;;;;;;;22.00;31.10;;;21.33;29.64;101315.66;12251955;19;19923;-84
2023/06/08 03:40:49;;;;;;;;;;;22.00;31.20;;;21.32;29.42;101314.00;12251912;19;19932;-83
2023/06/08 03:44:52;;;;;;;;;;;21.90;31.20;;;21.25;29.50;101323.50;12253482;19;19939;-83
2023/06/08 03:48:56;;;;;;;;;;;21.90;31.20;;;21.19;29.85;101315.09;12250210;19;20250;-83
2023/06/08 03:52:57;;;;;;;;;;;21.80;31.20;;;21.13;29.70;101310.34;12249258;19;19917;-83
2023/06/08 03:56:59;;;;;;;;;;;21.80;31.30;;;21.06;29.56;101301.25;12245885;19;19927;-83
2023/06/08 04:01:01;;;;;;;;;;;21.80;31.40;;;21.13;29.90;101309.50;12245770;19;20281;-83
2023/06/08 04:05:03;;;;;;;;;;;21.80;31.40;;;21.14;29.78;101317.34;12253167;19;19911;-84
2023/06/08 04:09:05;;;;;;;;;;;21.70;31.40;;;20.97;29.66;101287.00;12250664;19;19927;-83
2023/06/08 04:13:08;;;;;;;;;;;21.80;31.60;;;21.16;29.79;101319.84;12243603;19;19935;-83
2023/06/08 04:17:12;;;;;;;;;;;21.80;31.70;;;21.07;29.95;101310.91;12255410;19;20573;-83
2023/06/08 04:21:16;;;;;;;;;;;21.80;31.60;;;21.03;29.95;101301.53;12251955;19;19918;-82
2023/06/08 04:25:19;;;;;;;;;;;21.80;31.60;;;21.15;29.68;101316.38;12250910;19;19923;-84
2023/06/08 04:29:21;;;;;;;;;;;21.80;31.50;;;21.22;30.18;101319.28;12254696;19;20242;-84
2023/06/08 04:33:23;;;;;;;;;;;21.80;31.60;;;21.21;29.78;101318.47;12241699;19;20646;-84
2023/06/08 04:37:25;;;;;;;;;;;21.90;31.50;;;21.09;29.91;101289.50;12256367;19;19987;-84
2023/06/08 04:41:29;;;;;;;;;;;22.00;31.60;;;21.33;30.16;101318.31;12252707;19;19934;-85
2023/06/08 04:45:35;;;;;;;;;;;22.00;31.60;;;21.32;29.85;101312.16;12255636;19;19915;-85
2023/06/08 04:49:38;;;;;;;;;;;22.10;31.50;;;21.39;29.96;101320.47;12254367;19;19970;-84
2023/06/08 04:53:42;;;;;;;;;;;22.10;31.50;;;21.33;30.13;101303.25;12251628;19;20340;-85
2023/06/08 04:57:43;;;;;;;;;;;22.20;31.70;;;21.44;30.45;101310.22;12254885;19;20649;-84
2023/06/08 05:01:45;;;;;;;;;;;22.20;31.70;;;21.53;29.99;101317.38;12252037;19;19946;-85
2023/06/08 05:05:47;;;;;;;;;;;22.30;31.70;;;21.54;30.38;101308.41;12255283;19;19910;-84
2023/06/08 05:09:49;;;;;;;;;;;22.30;31.60;;;21.64;30.10;101319.03;12252412;19;19922;-85
2023/06/08 05:13:51;;;;;;;;;;;22.40;31.70;;;21.68;30.26;101314.25;12251407;19;19978;-85
2023/06/08 05:17:52;;;;;;;;;;;22.50;31.60;;;21.75;30.11;101320.69;12247775;19;20322;-84
2023/06/08 05:21:53;;;;;;;;;;;22.50;31.50;;;21.81;30.56;101317.44;12248318;19;19927;-84
2023/06/08 05:25:55;;;;;;;;;;;22.60;31.60;;;21.84;30.59;101309.19;12250830;19;19919;-85
2023/06/08 05:29:56;;;;;;;;;;;22.70;31.40;;;21.88;30.34;101307.94;12253367;19;19919;-86
2023/06/08 05:33:57;;;;;;;;;;;22.80;31.50;;;21.92;30.33;101313.78;12250220;19;19919;-84
2023/06/08 05:38:00;;;;;;;;;;;22.80;31.50;;;21.96;30.29;101313.38;12251720;19;19946;-85
2023/06/08 05:42:03;;;;;;;;;;;22.90;31.70;;;22.10;30.48;101310.22;12246760;19;19914;-84
2023/06/08 05:46:04;;;;;;;;;;;23.00;31.90;;;22.24;30.52;101322.25;12248350;19;19970;-84
2023/06/08 05:50:06;;;;;;;;;;;23.10;32.10;;;22.39;30.41;101319.13;12248221;19;19926;-85
2023/06/08 05:54:08;;;;;;;;;;;23.20;31.40;;;22.44;30.40;101298.19;12246358;19;19915;-86
2023/06/08 05:58:10;;;;;;;;;;;23.40;31.70;;;22.62;30.39;101296.41;12248814;19;20337;-85
2023/06/08 06:02:13;;;;;;;;;;;23.50;31.70;;;22.90;30.35;101307.03;12246431;19;20245;-84
2023/06/08 06:06:14;;;;;;;;;;;23.70;31.80;;;22.99;30.60;101297.34;12250810;19;20314;-84
2023/06/08 06:10:16;;;;;;;;;;;23.90;31.50;;;23.08;30.59;101288.44;12250145;19;20272;-84
2023/06/08 06:14:17;;;;;;;;;;;24.10;31.60;;;23.32;30.75;101307.31;12245376;19;20346;-84
2023/06/08 06:18:19;;;;;;;;;;;24.30;31.40;;;23.47;30.28;101325.44;12248380;19;19914;-83
2023/06/08 06:22:20;;;;;;;;;;;24.40;31.30;;;23.59;30.33;101325.00;12246668;19;20256;-83
2023/06/08 06:26:22;;;;;;;;;;;24.60;31.30;;;23.76;30.43;101318.03;12258724;19;19923;-83
2023/06/08 06:30:23;;;;;;;;;;;24.70;31.30;;;23.90;30.43;101305.94;12256944;19;19919;-84
2023/06/08 06:34:25;;;;;;;;;;;24.90;30.90;;;24.14;30.53;101307.91;12255143;19;19918;-83
2023/06/08 06:38:27;;;;;;;;;;;25.10;30.30;;;24.33;30.19;101319.31;12252191;19;19959;-82
2023/06/08 06:42:28;;;;;;;;;;;25.20;30.70;;;24.54;30.22;101327.78;12243587;19;19915;-83
2023/06/08 06:46:40;;;;;;;;;;;25.40;30.70;;;24.75;30.14;101321.16;12248070;19;19966;-82
2023/06/08 06:50:41;;;;;;;;;;;25.70;30.70;;;24.94;29.77;101318.22;12248015;19;19935;-83
2023/06/08 06:54:43;;;;;;;;;;;25.90;30.00;;;25.10;29.97;101325.41;12252854;19;19986;-83
2023/06/08 06:58:45;;;;;;;;;;;26.00;29.70;;;25.24;29.60;101324.78;12247049;19;19924;-83
2023/06/08 07:02:47;;;;;;;;;;;26.20;30.00;;;25.16;29.79;101296.19;12246752;19;19919;-83
2023/06/08 07:06:50;;;;;;;;;;;26.30;30.10;;;25.44;29.60;101322.63;12250138;19;19937;-83
2023/06/08 07:10:51;;;;;;;;;;;26.40;30.00;;;25.59;29.95;101326.28;12249334;19;20391;-84
2023/06/08 07:14:53;;;;;;;;;;;26.50;30.00;;;25.68;29.64;101302.19;12251202;19;19926;-84
2023/06/08 07:18:54;;;;;;;;;;;26.70;29.90;;;25.85;29.31;101314.59;12254377;19;20250;-84
2023/06/08 07:22:56;;;;;;;;;;;26.80;29.60;;;26.07;29.64;101320.22;12248882;19;20788;-84
2023/06/08 07:26:57;;;;;;;;;;;27.00;29.50;;;26.22;29.34;101322.03;12253664;19;19917;-83
2023/06/08 07:30:58;;;;;;;;;;;27.10;29.40;;;26.32;29.32;101315.63;12252737;19;19947;-84
2023/06/08 07:35:03;;;;;;;;;;;27.20;29.30;;;26.43;29.28;101313.38;12251375;19;19919;-83
2023/06/08 07:39:04;;;;;;;;;;;27.40;29.80;;;26.53;29.37;101301.66;12252515;19;20649;-84
2023/06/08 07:43:06;;;;;;;;;;;27.50;28.60;;;26.70;28.87;101321.97;12247051;19;20253;-84
2023/06/08 07:47:08;;;;;;;;;;;27.60;28.30;;;26.66;28.93;101302.75;12253643;19;19937;-84
2023/06/08 07:51:09;;;;;;;;;;;27.70;28.80;;;26.81;28.61;101310.03;12248354;19;19918;-84
2023/06/08 07:55:10;;;;;;;;;;;27.70;29.30;;;26.93;28.68;101317.50;12254766;19;19915;-84
2023/06/08 07:59:12;;;;;;;;;;;27.80;29.00;;;26.88;28.58;101281.53;12255763;19;19919;-84
2023/06/08 08:03:13;;;;;;;;;;;27.90;29.70;;;27.29;28.78;101313.41;12243152;19;20084;-83
2023/06/08 08:07:15;;;;;;;;;;;28.10;30.00;;;27.38;28.57;101306.13;12248936;19;19929;-83
2023/06/08 08:11:16;;;;;;;;;;;28.40;29.90;;;27.56;28.80;101301.25;12248622;19;19919;-82
2023/06/08 08:15:18;;;;;;;;;;;28.40;29.80;;;27.67;28.98;101303.50;12251606;19;19919;-85
2023/06/08 08:19:19;;;;;;;;;;;28.60;29.80;;;27.93;28.52;101313.84;12248123;19;20695;-85
2023/06/08 08:23:21;;;;;;;;;;;28.80;29.30;;;27.99;28.29;101294.28;12246820;19;19922;-84
2023/06/08 08:27:22;;;;;;;;;;;29.00;29.60;;;28.24;28.45;101308.25;12247985;19;19922;-84
2023/06/08 08:31:24;;;;;;;;;;;29.10;29.30;;;28.33;28.22;101295.59;12246311;19;19982;-84
2023/06/08 08:35:28;;;;;;;;;;;29.20;28.30;;;28.47;28.13;101306.53;12246740;19;19962;-84
2023/06/08 08:39:33;;;;;;;;;;;29.40;28.80;;;28.64;27.72;101314.16;12247593;19;20343;-84
2023/06/08 08:43:57;;;;;;;;;;;29.50;28.20;;;28.71;28.29;101299.97;12247832;19;19923;-83
2023/06/08 08:48:01;;;;;;;;;;;29.60;28.90;;;28.71;28.05;101290.06;12250384;19;19927;-84
2023/06/08 08:52:04;;;;;;;;;;;29.70;29.30;;;28.97;27.78;101294.03;12244494;19;19959;-84
2023/06/08 08:56:06;;;;;;;;;;;29.80;29.50;;;29.11;27.80;101295.84;12247000;19;20260;-84
2023/06/08 09:00:10;;;;;;;;;;;30.00;28.40;;;29.29;27.82;101308.84;12244202;19;19937;-84
2023/06/08 09:04:11;;;;;;;;;;;30.20;29.30;;;29.33;27.63;101296.66;12239709;19;19986;-85
2023/06/08 09:08:13;;;;;;;;;;;30.30;29.10;;;29.51;28.00;101301.56;12246690;19;19982;-83
2023/06/08 09:12:14;;;;;;;;;;;30.30;29.00;;;29.65;27.69;101303.38;12241674;19;19923;-84
2023/06/08 09:16:20;;;;;;;;;;;30.50;29.10;;;29.80;27.65;101299.72;12248164;19;19930;-83
2023/06/08 09:20:33;;;;;;;;;;;30.60;29.00;;;29.86;27.43;101275.50;12242170;19;19919;-84
2023/06/08 09:25:05;;;;;;;;;;;30.80;29.30;;;30.08;27.63;101294.28;12245898;19;19933;-85
2023/06/08 09:29:07;;;;;;;;;;;30.90;28.30;;;30.12;27.59;101284.78;12242328;19;20423;-85
2023/06/08 09:33:29;;;;;;;;;;;31.00;29.10;;;30.24;27.28;101290.44;12240277;19;19914;-84
2023/06/08 09:37:32;;;;;;;;;;;31.10;28.40;;;30.30;27.25;101281.56;12244242;19;19915;-84
2023/06/08 09:41:37;;;;;;;;;;;31.20;28.50;;;30.38;27.10;101274.16;12236283;19;19923;-85
2023/06/08 09:45:47;;;;;;;;;;;31.30;28.50;;;30.46;26.93;101274.97;12244423;19;20277;-85
2023/06/08 09:49:50;;;;;;;;;;;31.30;28.50;;;30.56;26.81;101275.44;12242213;19;19922;-84
2023/06/08 09:53:57;;;;;;;;;;;31.40;28.50;;;30.72;26.95;101280.44;12239914;19;19928;-85
2023/06/08 09:58:01;;;;;;;;;;;31.50;27.70;;;30.76;26.76;101279.00;12246241;19;19915;-84
2023/06/08 10:02:16;;;;;;;;;;;31.60;28.20;;;30.75;26.45;101263.84;12255082;19;20460;-85
2023/06/08 10:06:18;;;;;;;;;;;31.60;28.40;;;30.90;26.37;101276.38;12254865;19;19941;-85
2023/06/08 10:10:29;;;;;;;;;;;31.70;27.70;;;30.94;26.49;101273.03;12257544;19;19927;-84
2023/06/08 10:14:31;;;;;;;;;;;31.70;28.40;;;30.95;26.10;101263.94;12252374;19;20254;-85
2023/06/08 10:18:33;;;;;;;;;;;31.80;27.70;;;31.04;26.12;101251.06;12253286;19;20329;-85
2023/06/08 10:22:36;;;;;;;;;;;31.90;28.40;;;31.16;26.41;101248.56;12252330;19;20356;-85
2023/06/08 10:26:38;;;;;;;;;;;31.90;28.20;;;31.26;26.17;101244.41;12252930;19;19930;-84
2023/06/08 10:30:41;;;;;;;;;;;32.10;27.80;;;31.34;26.20;101251.47;12254729;19;19923;-85
2023/06/08 10:34:43;;;;;;;;;;;32.10;27.80;;;31.46;25.78;101249.81;12261653;19;20338;-84
2023/06/08 10:38:55;;;;;;;;;;;32.20;28.40;;;31.57;26.20;101248.34;12255120;19;19914;-85
2023/06/08 10:42:58;;;;;;;;;;;32.30;28.10;;;31.71;26.23;101249.97;12253283;19;19911;-84
2023/06/08 10:47:01;;;;;;;;;;;32.40;27.70;;;31.78;26.05;101236.44;12259920;19;19919;-85
2023/06/08 10:51:05;;;;;;;;;;;32.50;27.90;;;31.85;25.82;101234.56;12265376;19;19919;-85
2023/06/08 10:55:13;;;;;;;;;;;32.60;28.80;;;31.87;25.75;101240.56;12262083;19;19915;-85
2023/06/08 10:59:14;;;;;;;;;;;32.70;27.60;;;31.93;25.60;101231.66;12261391;19;19918;-84
2023/06/08 11:03:18;;;;;;;;;;;32.70;28.10;;;31.99;25.57;101227.25;12259423;19;19954;-85
2023/06/08 11:07:22;;;;;;;;;;;32.80;27.70;;;32.06;25.15;101222.66;12261198;19;19914;-85
2023/06/08 11:11:23;;;;;;;;;;;32.80;27.90;;;32.08;25.59;101219.72;12246692;19;19927;-85
2023/06/08 11:15:25;;;;;;;;;;;32.80;27.30;;;32.09;25.06;101208.72;12249365;19;19923;-83
2023/06/08 11:19:28;;;;;;;;;;;32.90;28.40;;;32.07;25.21;101197.28;12247993;19;19927;-84
2023/06/08 11:23:33;;;;;;;;;;;32.90;28.10;;;32.13;25.09;101199.13;12249040;19;19914;-84
2023/06/08 11:27:42;;;;;;;;;;;33.00;28.20;;;32.25;25.13;101188.47;12251280;19;19926;-84
2023/06/08 11:31:44;;;;;;;;;;;33.00;27.90;;;32.28;24.97;101171.81;12250190;19;19925;-84
2023/06/08 11:35:50;;;;;;;;;;;33.10;28.40;;;32.45;24.88;101182.91;12253017;19;19915;-83
2023/06/08 11:39:54;;;;;;;;;;;33.20;28.50;;;32.46;24.73;101170.22;12250165;19;19923;-83
2023/06/08 11:43:57;;;;;;;;;;;33.20;28.00;;;32.56;25.13;101170.59;12248968;19;19915;-84
2023/06/08 11:47:58;;;;;;;;;;;33.30;27.80;;;32.73;24.91;101185.25;12250437;19;19911;-83
2023/06/08 11:52:01;;;;;;;;;;;33.40;28.10;;;32.81;24.89;101166.03;12247721;19;20273;-85
2023/06/08 11:56:03;;;;;;;;;;;33.50;28.40;;;32.90;24.95;101171.19;12249145;19;19923;-84
2023/06/08 12:00:09;;;;;;;;;;;33.60;26.70;;;32.87;24.68;101158.91;12249621;19;19918;-81
2023/06/08 12:04:13;;;;;;;;;;;33.60;27.90;;;32.90;24.67;101158.47;12247697;19;19946;-84
2023/06/08 12:08:15;;;;;;;;;;;33.70;27.40;;;32.98;24.66;101154.66;12250535;19;19921;-83
2023/06/08 12:12:17;;;;;;;;;;;33.70;26.50;;;33.03;24.56;101162.97;12245387;19;20309;-84
2023/06/08 12:16:19;;;;;;;;;;;33.70;27.50;;;33.02;24.52;101156.69;12250017;19;19925;-83
2023/06/08 12:20:20;;;;;;;;;;;33.70;27.90;;;33.01;24.39;101160.47;12246797;19;19931;-83
2023/06/08 12:24:22;;;;;;;;;;;33.70;27.40;;;32.94;24.57;101153.44;12244559;19;19915;-83
2023/06/08 12:28:25;;;;;;;;;;;33.70;27.20;;;32.81;24.33;101151.66;12240871;19;19960;-84
2023/06/08 12:32:26;;;;;;;;;;;33.60;26.50;;;32.71;24.42;101145.94;12244054;19;19943;-83
2023/06/08 12:36:29;;;;;;;;;;;33.50;27.40;;;32.75;24.64;101134.44;12243668;19;19923;-83
2023/06/08 12:40:30;;;;;;;;;;;33.50;28.10;;;32.79;24.46;101127.56;12244151;19;19923;-84
2023/06/08 12:44:32;;;;;;;;;;;33.50;27.50;;;32.90;24.43;101127.88;12243129;19;19926;-83
2023/06/08 12:48:34;;;;;;;;;;;33.50;27.70;;;32.88;24.18;101122.69;12244476;19;20088;-82
2023/06/08 12:52:35;;;;;;;;;;;33.60;27.30;;;32.91;24.05;101129.53;12243401;19;20256;-83
2023/06/08 12:56:37;;;;;;;;;;;33.60;28.10;;;32.88;23.80;101133.50;12242797;19;19921;-83
2023/06/08 13:00:38;;;;;;;;;;;33.60;27.90;;;32.85;24.38;101128.53;12240697;19;19932;-83
2023/06/08 13:04:40;;;;;;;;;;;33.50;27.70;;;32.84;24.39;101124.19;12242857;19;19943;-83
2023/06/08 13:08:41;;;;;;;;;;;33.50;27.80;;;32.96;24.28;101135.91;12244130;19;19949;-84
2023/06/08 13:12:43;;;;;;;;;;;33.60;28.10;;;33.02;23.91;101129.63;12241297;19;19919;-84
2023/06/08 13:16:45;;;;;;;;;;;33.70;26.80;;;33.11;24.09;101121.22;12241389;19;19933;-84
2023/06/08 13:20:47;;;;;;;;;;;33.70;27.20;;;33.18;24.17;101117.41;12240939;19;20370;-83
2023/06/08 13:24:48;;;;;;;;;;;33.80;27.70;;;33.07;24.11;101077.56;12241457;19;19939;-85
2023/06/08 13:28:51;;;;;;;;;;;33.90;25.80;;;33.24;23.86;101102.97;12234086;19;19922;-83
2023/06/08 13:32:53;;;;;;;;;;;33.90;26.30;;;33.25;23.57;101106.50;12246768;19;19957;-83
2023/06/08 13:36:54;;;;;;;;;;;33.90;27.50;;;33.32;23.81;101115.38;12266678;19;19923;-83
2023/06/08 13:40:56;;;;;;;;;;;34.00;27.40;;;33.32;23.63;101111.84;12262192;19;20018;-83
2023/06/08 13:44:57;;;;;;;;;;;34.00;26.80;;;33.25;23.55;101107.34;12266963;19;19914;-83
2023/06/08 13:48:59;;;;;;;;;;;34.00;27.20;;;33.23;23.82;101112.13;12270412;19;19998;-82
2023/06/08 13:53:00;;;;;;;;;;;33.90;27.70;;;33.20;23.82;101104.47;12251594;19;19934;-82
2023/06/08 13:57:03;;;;;;;;;;;33.90;27.10;;;33.20;23.25;101098.25;12260509;19;20289;-83
2023/06/08 14:01:05;;;;;;;;;;;33.80;27.50;;;33.29;23.79;101110.41;12262788;19;19910;-83
2023/06/08 14:05:07;;;;;;;;;;;33.90;27.90;;;33.30;23.68;101103.97;12261765;19;19922;-83
2023/06/08 14:09:10;;;;;;;;;;;33.90;27.40;;;33.33;23.63;101097.25;12268481;19;19993;-83
2023/06/08 14:13:12;;;;;;;;;;;33.90;26.80;;;33.33;23.59;101092.66;12263231;19;19935;-83
2023/06/08 14:17:14;;;;;;;;;;;33.90;26.50;;;33.32;23.31;101096.41;12268343;19;19910;-82
2023/06/08 14:21:16;;;;;;;;;;;33.90;27.30;;;33.27;23.46;101101.72;12264783;19;19978;-82
2023/06/08 14:25:17;;;;;;;;;;;33.90;27.70;;;33.21;23.77;101092.59;12267245;19;19935;-82
2023/06/08 14:29:19;;;;;;;;;;;33.90;27.40;;;33.15;23.38;101085.38;12265841;19;19997;-82
2023/06/08 14:33:20;;;;;;;;;;;33.80;27.30;;;33.13;23.55;101082.06;12263471;19;19922;-82
2023/06/08 14:37:22;;;;;;;;;;;33.70;27.40;;;33.14;23.51;101077.50;12261839;19;19929;-82
2023/06/08 14:41:24;;;;;;;;;;;33.70;27.40;;;33.08;23.63;101064.84;12264768;19;20007;-83
2023/06/08 14:45:25;;;;;;;;;;;33.60;27.70;;;33.14;23.34;101063.97;12255744;19;20341;-82
2023/06/08 14:49:28;;;;;;;;;;;33.60;27.30;;;33.18;23.45;101068.69;12246283;19;19927;-82
2023/06/08 14:53:29;;;;;;;;;;;33.70;27.80;;;33.21;23.47;101064.69;12248906;19;19960;-82
2023/06/08 14:57:30;;;;;;;;;;;33.70;27.70;;;33.18;23.36;101044.31;12253526;19;19994;-82
2023/06/08 15:01:32;;;;;;;;;;;33.70;26.40;;;33.19;23.36;101058.66;12253567;19;19911;-82
2023/06/08 15:05:33;;;;;;;;;;;33.70;26.80;;;33.15;23.37;101046.66;12252467;19;19925;-83
2023/06/08 15:09:35;;;;;;;;;;;33.70;27.20;;;33.18;23.47;101035.38;12250855;19;20321;-83
2023/06/08 15:13:41;;;;;;;;;;;33.70;27.10;;;33.24;23.19;101043.44;12249762;19;19922;-83
2023/06/08 15:17:43;;;;;;;;;;;33.70;27.20;;;33.24;23.19;101032.59;12250199;19;19922;-83
2023/06/08 15:21:45;;;;;;;;;;;33.80;26.80;;;33.21;23.19;101027.59;12248549;19;19918;-84
2023/06/08 15:25:46;;;;;;;;;;;33.80;27.40;;;33.19;23.41;101020.78;12250577;19;19919;-83
2023/06/08 15:29:48;;;;;;;;;;;33.70;27.40;;;33.07;23.21;101026.13;12252376;19;19926;-84
2023/06/08 15:33:50;;;;;;;;;;;33.70;27.30;;;33.09;22.98;101031.31;12246056;19;19947;-82
2023/06/08 15:37:51;;;;;;;;;;;33.60;26.30;;;33.01;23.22;101014.34;12252556;19;19930;-82
2023/06/08 15:41:53;;;;;;;;;;;33.60;27.10;;;32.96;22.90;101016.84;12248719;19;19929;-82
2023/06/08 15:45:55;;;;;;;;;;;33.50;27.60;;;32.94;23.13;101013.53;12250125;19;19922;-83
2023/06/08 15:49:56;;;;;;;;;;;33.50;27.20;;;32.95;23.07;101006.28;12252441;19;20337;-83
2023/06/08 15:53:59;;;;;;;;;;;33.50;27.50;;;33.00;23.24;101007.28;12245853;19;20281;-83
2023/06/08 15:58:01;;;;;;;;;;;33.50;26.90;;;33.00;23.15;101012.69;12248833;19;19926;-82
2023/06/08 16:02:03;;;;;;;;;;;33.50;27.10;;;32.94;23.36;101002.72;12249359;19;19919;-83
2023/06/08 16:06:05;;;;;;;;;;;33.50;27.60;;;32.95;23.07;100998.16;12248041;19;19923;-83
2023/06/08 16:10:07;;;;;;;;;;;33.50;27.40;;;32.92;22.86;101002.13;12251668;19;19934;-83
2023/06/08 16:14:09;;;;;;;;;;;33.40;27.40;;;32.95;23.38;101015.22;12246602;19;19926;-84
2023/06/08 16:18:10;;;;;;;;;;;33.40;27.30;;;32.95;22.86;101008.97;12251246;19;20315;-83
2023/06/08 16:22:12;;;;;;;;;;;33.40;27.60;;;32.88;23.19;101003.63;12247826;19;20245;-83
2023/06/08 16:26:14;;;;;;;;;;;33.40;27.30;;;32.74;23.02;101008.38;12249122;19;20264;-82
2023/06/08 16:30:15;;;;;;;;;;;33.30;27.10;;;32.54;23.33;100988.81;12246234;19;19919;-82
2023/06/08 16:34:17;;;;;;;;;;;33.20;27.20;;;32.59;23.35;101006.03;12233406;19;19914;-83
2023/06/08 16:38:19;;;;;;;;;;;33.10;27.50;;;32.49;23.12;100986.78;12244639;19;19915;-82
2023/06/08 16:42:20;;;;;;;;;;;33.00;27.30;;;32.52;23.36;100999.03;12242997;19;20574;-82
2023/06/08 16:46:22;;;;;;;;;;;33.00;27.50;;;32.49;23.16;100994.06;12245200;19;19937;-82
2023/06/08 16:50:24;;;;;;;;;;;33.00;27.70;;;32.44;23.01;100992.00;12240816;19;19930;-82
2023/06/08 16:54:25;;;;;;;;;;;32.90;27.60;;;32.42;23.32;100994.09;12246548;19;19918;-82
2023/06/08 16:58:27;;;;;;;;;;;32.80;27.80;;;32.35;23.29;100990.63;12243663;19;19923;-82
2023/06/08 17:02:28;;;;;;;;;;;32.80;27.70;;;32.34;23.44;100999.78;12242138;19;19927;-82
2023/06/08 17:06:29;;;;;;;;;;;32.70;27.70;;;32.26;23.23;101002.78;12245164;19;19923;-83
2023/06/08 17:10:31;;;;;;;;;;;32.70;27.60;;;32.16;23.43;101001.41;12244537;19;19915;-82
2023/06/08 17:14:33;;;;;;;;;;;32.60;27.80;;;32.15;23.12;101005.16;12244098;19;19959;-82
2023/06/08 17:18:35;;;;;;;;;;;32.60;27.80;;;32.12;23.45;101010.16;12245986;19;19995;-82
2023/06/08 17:22:36;;;;;;;;;;;32.50;27.80;;;32.08;23.08;101008.94;12243781;19;19925;-83
2023/06/08 17:26:39;;;;;;;;;;;32.50;27.80;;;31.99;23.12;101005.69;12245057;19;19955;-82
2023/06/08 17:30:41;;;;;;;;;;;32.40;27.70;;;31.83;23.18;100996.22;12243946;19;19919;-82
2023/06/08 17:34:43;;;;;;;;;;;32.30;27.80;;;31.81;23.30;101008.28;12241304;19;19948;-82
2023/06/08 17:38:44;;;;;;;;;;;32.30;27.90;;;31.76;23.44;101011.66;12244541;19;20005;-82
2023/06/08 17:42:45;;;;;;;;;;;32.10;28.00;;;31.59;23.41;100989.72;12241762;19;19919;-82
2023/06/08 17:46:47;;;;;;;;;;;32.10;28.00;;;31.54;23.26;100994.94;12242774;19;19915;-82
2023/06/08 17:50:49;;;;;;;;;;;32.00;28.10;;;31.47;23.34;101000.41;12240882;19;19923;-82
2023/06/08 17:54:50;;;;;;;;;;;31.90;28.10;;;31.40;23.62;101005.00;12242974;19;19932;-82
2023/06/08 17:58:52;;;;;;;;;;;31.80;28.20;;;31.30;23.54;101007.31;12243149;19;19911;-83
2023/06/08 18:02:54;;;;;;;;;;;31.70;28.20;;;31.27;23.43;101007.72;12237830;19;19927;-83
2023/06/08 18:06:55;;;;;;;;;;;31.70;28.20;;;31.23;23.79;101011.91;12244952;19;19944;-82
2023/06/08 18:10:58;;;;;;;;;;;31.60;28.30;;;31.20;23.36;101020.44;12242259;19;20245;-83